LTAF METAR and TAF | Updated Today

LTAF METAR

Adana Airport

Observation time: 27 min. ago

LTAF 061950Z 00000KT 9999 SCT035 24/20 Q1012 NOSIG RMK RWY23 25002KT 3CU035

Need help? Read our tutorial on how to read METARs or read the parsed version below.

Adana Airport (LTAF) METAR

  • Weather conditions on Thu, 06 Oct 2022 19:50:00 +0000 (27 min. ago):
  • Present conditions: Dry
  • Clouds: Scattered at 1067 meters
  • Visibility: Greater than 10 km
  • Wind: Calm
  • Temperature: 24 celsius
  • Dew point: 20 celsius
  • Pressure: 1012 millibars
  • Remarks: RWY23 25002KT 3CU035


Useful to know...

LTAF TAF

Adana Airport

TAF LTAF 061640Z 0618/0718 VRB02KT 9999 SCT035 TEMPO 0706/0710 -SHRA BECMG 0709/0711 20012KT BECMG 0715/0717 VRB02KT
Observation time: 3:37 hr. ago
Need help? Read our tutorial on how to read TAFs or read the parsed version below.

Parsed version of TAF for Adana Airport (LTAF)

  • From 06 October at 18:00 UTC, to day 07 of the month at 18:00 UTC
  • Clouds: Scattered at 1067 meters
  • Visibility: Greater than 10 km
  • Wind: Variable at 2
  • Expected to arise temporarily, from 07 October at 06:00 UTC, to day 07 of the month at 10:00 UTC
  • Other: Light showers of rain
  • Expected to arise soon, from 07 October at 09:00 UTC, to day 07 of the month at 11:00 UTC
  • Wind: 200 degrees at 12
  • Expected to arise soon, from 07 October at 15:00 UTC, to day 07 of the month at 17:00 UTC
  • Wind: Variable at 2